Time;durP1;ratioP1;P1;durP2;ratioP2;P2;SDS_P1;SDS_P2;PMS_P1;PMS_P2;Temp;Humidity;BMP_temperature;BMP_pressure;BME280_temperature;BME280_humidity;BME280_pressure;Samples;Min_cycle;Max_cycle;Signal;HPM_P1;HPM_P2
2022/09/20 00:01:24;;;;;;;1.60;0.80;;;;;;;15.18;46.71;100106.75;117284;1186;23553;-68
2022/09/20 00:03:53;;;;;;;0.80;0.30;;;;;;;15.12;46.69;100109.06;117202;1186;23557;-62
2022/09/20 00:06:22;;;;;;;5.10;0.60;;;;;;;15.02;46.81;100106.59;117114;1184;21856;-61
2022/09/20 00:08:49;;;;;;;2.20;0.50;;;;;;;14.97;46.82;100109.44;117000;1187;23548;-68
2022/09/20 00:11:19;;;;;;;3.10;0.60;;;;;;;14.94;47.00;100118.36;117106;1185;23636;-68
2022/09/20 00:13:47;;;;;;;0.90;0.40;;;;;;;14.93;47.00;100125.11;117157;1187;23650;-62
2022/09/20 00:16:26;;;;;;;1.10;0.40;;;;;;;14.94;47.30;100122.98;117162;1186;24222;-68
2022/09/20 00:18:55;;;;;;;1.60;0.60;;;;;;;14.95;47.33;100122.56;117189;1184;22566;-62
2022/09/20 00:21:24;;;;;;;1.30;0.30;;;;;;;15.00;47.52;100123.81;117330;1186;22929;-61
2022/09/20 00:23:52;;;;;;;3.00;0.60;;;;;;;15.04;47.57;100116.23;117274;1186;24169;-61
2022/09/20 00:26:19;;;;;;;1.90;0.40;;;;;;;15.10;47.58;100115.34;117238;1186;23468;-61
2022/09/20 00:28:46;;;;;;;1.30;0.30;;;;;;;15.14;47.58;100113.77;117172;1187;23618;-62
2022/09/20 00:31:14;;;;;;;1.10;0.20;;;;;;;15.19;47.70;100115.02;117357;1185;23576;-68
2022/09/20 00:36:31;;;;;;;1.40;0.70;;;;;;;15.32;47.86;100105.54;117198;1186;23649;-62
2022/09/20 00:38:59;;;;;;;1.00;0.40;;;;;;;15.39;47.96;100108.46;117207;1186;21957;-68
2022/09/20 00:41:26;;;;;;;1.30;0.50;;;;;;;15.46;47.93;100109.47;117222;1186;23556;-61
2022/09/20 00:43:53;;;;;;;2.90;0.60;;;;;;;15.52;47.95;100103.05;117231;1186;23567;-61
2022/09/20 00:46:35;;;;;;;2.70;0.60;;;;;;;15.57;48.02;100099.13;117209;1186;23449;-62
2022/09/20 00:49:12;;;;;;;2.10;0.50;;;;;;;15.64;48.00;100097.13;117046;1186;21855;-68
2022/09/20 00:51:41;;;;;;;6.60;0.80;;;;;;;15.67;47.80;100098.23;117227;1186;23646;-61
2022/09/20 00:54:08;;;;;;;1.10;0.40;;;;;;;15.72;47.58;100090.27;117189;1188;23594;-65
2022/09/20 00:56:37;;;;;;;1.90;0.30;;;;;;;15.74;47.62;100083.98;117066;1187;23562;-61
2022/09/20 00:59:24;;;;;;;3.80;0.50;;;;;;;15.74;47.65;100083.48;116967;1187;24221;-68
2022/09/20 01:01:54;;;;;;;1.60;0.60;;;;;;;15.74;47.78;100081.33;117241;1188;23567;-61
2022/09/20 01:04:23;;;;;;;3.80;0.50;;;;;;;15.75;47.78;100077.61;117109;1188;24175;-68
2022/09/20 01:06:51;;;;;;;2.00;0.70;;;;;;;15.77;47.91;100072.74;117063;1188;23592;-68
2022/09/20 01:09:18;;;;;;;2.20;0.50;;;;;;;15.78;47.89;100068.64;116985;1187;21927;-62
2022/09/20 01:11:46;;;;;;;2.10;0.50;;;;;;;15.79;48.06;100069.11;116986;1188;23558;-61
2022/09/20 01:14:13;;;;;;;1.40;0.40;;;;;;;15.81;48.05;100068.33;116898;1187;23557;-61
2022/09/20 01:16:40;;;;;;;1.30;0.40;;;;;;;15.84;48.09;100068.61;116997;1187;23598;-68
2022/09/20 01:19:31;;;;;;;1.20;0.50;;;;;;;15.83;48.04;100066.13;116976;1188;21872;-61
2022/09/20 01:22:00;;;;;;;1.90;0.50;;;;;;;15.83;48.08;100067.20;117000;1188;23715;-68
2022/09/20 01:24:42;;;;;;;2.60;0.50;;;;;;;15.82;48.05;100065.31;117030;1187;22932;-61
2022/09/20 01:27:17;;;;;;;4.60;0.50;;;;;;;15.80;48.18;100065.38;117029;1187;23546;-62
2022/09/20 01:30:23;;;;;;;1.10;0.50;;;;;;;15.80;48.28;100064.84;117083;1187;23555;-68
2022/09/20 01:33:12;;;;;;;3.20;1.00;;;;;;;15.81;48.38;100061.46;116920;1187;23597;-68
2022/09/20 01:35:40;;;;;;;2.20;0.50;;;;;;;15.80;48.61;100062.37;116997;1187;23978;-61
2022/09/20 01:38:22;;;;;;;4.00;1.00;;;;;;;15.82;48.84;100067.77;117044;1188;21858;-61
2022/09/20 01:41:06;;;;;;;4.10;1.00;;;;;;;15.83;48.92;100069.32;117080;1187;23564;-68
2022/09/20 01:43:51;;;;;;;2.10;0.70;;;;;;;15.88;49.24;100078.19;117117;1185;23634;-61
2022/09/20 01:46:31;;;;;;;1.30;0.60;;;;;;;15.93;49.73;100079.05;117174;1187;23542;-68
2022/09/20 01:49:26;;;;;;;1.80;0.70;;;;;;;15.94;49.81;100072.46;117163;1186;23833;-61
2022/09/20 01:52:15;;;;;;;1.60;0.70;;;;;;;15.95;50.04;100071.02;117132;1187;23573;-61
2022/09/20 01:55:06;;;;;;;3.70;1.00;;;;;;;15.94;49.77;100068.57;117140;1186;23594;-61
2022/09/20 01:58:35;;;;;;;2.60;1.20;;;;;;;15.95;50.12;100062.70;117060;1187;23544;-61
2022/09/20 02:01:04;;;;;;;6.30;3.20;;;;;;;15.96;50.39;100069.22;116693;1190;22924;-61
2022/09/20 02:03:46;;;;;;;13.30;6.30;;;;;;;15.96;50.15;100061.59;116662;1190;21850;-68
2022/09/20 02:06:17;;;;;;;13.30;7.80;;;;;;;15.98;50.32;100057.64;116823;1188;24020;-67
2022/09/20 02:08:55;;;;;;;16.20;7.60;;;;;;;16.02;50.29;100051.46;117013;1187;23571;-67
2022/09/20 02:11:40;;;;;;;13.20;7.20;;;;;;;16.06;50.19;100046.52;117100;1186;21859;-61
2022/09/20 02:14:22;;;;;;;12.30;6.30;;;;;;;16.10;50.38;100045.64;117037;1187;22501;-61
2022/09/20 02:16:53;;;;;;;12.50;5.40;;;;;;;16.13;50.37;100054.17;117095;1188;23555;-61
2022/09/20 02:19:40;;;;;;;10.10;5.20;;;;;;;16.16;50.59;100046.97;117108;1186;21845;-62
2022/09/20 02:22:16;;;;;;;12.90;4.90;;;;;;;16.17;50.58;100051.35;117241;1186;24209;-59
2022/09/20 02:24:54;;;;;;;8.70;4.40;;;;;;;16.19;50.63;100046.17;117197;1186;24158;-60
2022/09/20 02:27:45;;;;;;;8.60;4.40;;;;;;;16.21;50.59;100039.55;117169;1186;22731;-66
2022/09/20 02:30:40;;;;;;;9.40;4.10;;;;;;;16.23;50.59;100038.73;117287;1185;23557;-60
2022/09/20 02:33:42;;;;;;;11.70;4.00;;;;;;;16.24;50.93;100040.45;117081;1187;23587;-66
2022/09/20 02:36:26;;;;;;;6.60;1.90;;;;;;;16.25;50.92;100046.45;117110;1189;23576;-66
2022/09/20 02:39:11;;;;;;;4.90;2.10;;;;;;;16.25;51.02;100055.84;117224;1186;23608;-60
2022/09/20 02:42:03;;;;;;;3.80;1.40;;;;;;;16.23;51.07;100057.36;117142;1187;24209;-60
2022/09/20 02:45:13;;;;;;;5.30;1.50;;;;;;;16.20;51.06;100045.40;117156;1186;24803;-65
2022/09/20 02:47:42;;;;;;;4.00;1.70;;;;;;;16.19;50.95;100047.02;117029;1188;24152;-66
2022/09/20 02:50:38;;;;;;;2.20;1.10;;;;;;;16.19;50.88;100044.02;117196;1188;22834;-61
2022/09/20 02:53:30;;;;;;;3.00;1.40;;;;;;;16.18;51.07;100043.73;117107;1188;24302;-66
2022/09/20 02:56:28;;;;;;;3.60;1.80;;;;;;;16.15;51.06;100044.54;117184;1186;21851;-66
2022/09/20 02:59:11;;;;;;;7.10;2.30;;;;;;;16.14;51.04;100049.21;117283;1186;24701;-66
2022/09/20 03:02:10;;;;;;;10.30;3.50;;;;;;;16.13;51.22;100040.03;117209;1186;21853;-67
2022/09/20 03:04:56;;;;;;;11.50;3.70;;;;;;;16.14;51.46;100039.83;117133;1187;23544;-67
2022/09/20 03:07:45;;;;;;;8.80;3.30;;;;;;;16.12;51.32;100031.58;117061;1188;24235;-61
2022/09/20 03:10:31;;;;;;;5.30;2.10;;;;;;;16.14;51.34;100036.45;117171;1186;23583;-67
2022/09/20 03:13:07;;;;;;;26.30;2.70;;;;;;;16.11;51.22;100026.52;117042;1187;23592;-61
2022/09/20 03:15:47;;;;;;;6.60;1.20;;;;;;;16.11;51.32;100009.14;117094;1189;24182;-61
2022/09/20 03:18:17;;;;;;;3.30;1.00;;;;;;;16.10;51.15;100002.64;117043;1187;24246;-66
2022/09/20 03:21:14;;;;;;;4.20;1.10;;;;;;;16.08;51.17;99997.41;117121;1186;24235;-66
2022/09/20 03:23:57;;;;;;;5.70;1.00;;;;;;;16.04;51.00;99992.44;116997;1185;22820;-60
2022/09/20 03:27:02;;;;;;;1.90;0.90;;;;;;;16.02;51.00;99993.76;116971;1189;23556;-65
2022/09/20 03:29:58;;;;;;;2.60;0.90;;;;;;;15.97;51.26;99991.14;117252;1187;24285;-61
2022/09/20 03:32:42;;;;;;;1.70;0.50;;;;;;;15.88;51.16;99988.84;117223;1189;24168;-61
2022/09/20 03:35:18;;;;;;;2.70;0.80;;;;;;;15.80;51.15;99984.73;117150;1188;23544;-66
2022/09/20 03:38:04;;;;;;;2.50;0.70;;;;;;;15.74;50.92;99980.34;116979;1187;23551;-60
2022/09/20 03:40:43;;;;;;;1.70;0.60;;;;;;;15.71;51.05;99980.27;117230;1186;24175;-65
2022/09/20 03:43:34;;;;;;;4.00;0.80;;;;;;;15.66;51.10;99990.59;117222;1186;24165;-66
2022/09/20 03:46:18;;;;;;;2.60;0.60;;;;;;;15.55;51.08;100005.32;117325;1185;21909;-61
2022/09/20 03:48:57;;;;;;;1.70;0.70;;;;;;;15.42;51.30;100017.13;117061;1187;23720;-61
2022/09/20 03:51:43;;;;;;;1.80;0.90;;;;;;;15.33;51.41;100016.92;117111;1188;21864;-66
2022/09/20 03:54:42;;;;;;;3.00;1.10;;;;;;;15.29;51.50;100019.39;117123;1188;23560;-62
2022/09/20 03:57:33;;;;;;;4.00;0.60;;;;;;;15.27;51.42;100023.88;117160;1188;24200;-66
2022/09/20 04:00:06;;;;;;;3.20;0.60;;;;;;;15.24;51.47;100020.09;117333;1186;21970;-67
2022/09/20 04:02:58;;;;;;;1.20;0.60;;;;;;;15.19;51.50;100021.34;117209;1187;23596;-62
2022/09/20 04:05:56;;;;;;;3.50;1.20;;;;;;;15.19;51.40;100024.21;117311;1186;24727;-66
2022/09/20 04:08:30;;;;;;;5.20;1.50;;;;;;;15.15;51.56;100027.68;117281;1186;24164;-62
2022/09/20 04:11:15;;;;;;;2.50;0.70;;;;;;;15.11;51.38;100033.48;117101;1186;22083;-61
2022/09/20 04:14:04;;;;;;;4.30;0.70;;;;;;;15.07;51.56;100037.34;117060;1189;21925;-60
2022/09/20 04:17:02;;;;;;;5.20;1.10;;;;;;;15.02;51.62;100040.34;116987;1186;23477;-61
2022/09/20 04:19:35;;;;;;;4.30;0.80;;;;;;;14.98;51.79;100048.27;117273;1186;22721;-66
2022/09/20 04:22:02;;;;;;;4.40;0.70;;;;;;;14.93;51.82;100045.45;116987;1186;21848;-64
2022/09/20 04:24:54;;;;;;;2.00;0.90;;;;;;;14.89;51.86;100046.81;117206;1185;23580;-59
2022/09/20 04:27:37;;;;;;;1.90;0.90;;;;;;;14.90;51.91;100055.80;116900;1187;23483;-64
2022/09/20 04:30:11;;;;;;;3.10;0.70;;;;;;;14.90;52.00;100061.27;118977;1187;21862;-60
2022/09/20 04:32:41;;;;;;;5.10;1.20;;;;;;;14.91;52.13;100068.48;117013;1183;23908;-60
2022/09/20 04:38:04;;;;;;;2.00;0.70;;;;;;;14.93;52.21;100078.11;117033;1187;23553;-60
2022/09/20 04:41:06;;;;;;;2.60;1.00;;;;;;;14.90;52.37;100082.98;116809;1187;24310;-59
2022/09/20 04:44:26;;;;;;;16.30;1.90;;;;;;;14.88;52.43;100087.84;116903;1188;23825;-60
2022/09/20 04:47:24;;;;;;;3.10;1.50;;;;;;;14.89;52.86;100095.05;116898;1188;24809;-61
2022/09/20 04:50:26;;;;;;;5.80;1.90;;;;;;;14.91;53.08;100094.62;116867;1187;23561;-60
2022/09/20 04:53:31;;;;;;;4.10;2.10;;;;;;;14.91;54.24;100098.67;116977;1188;22742;-65
2022/09/20 04:56:21;;;;;;;3.50;2.00;;;;;;;14.92;53.76;100104.82;117028;1187;23606;-65
2022/09/20 04:58:48;;;;;;;4.10;2.20;;;;;;;14.93;53.61;100105.32;116999;1187;21954;-59
2022/09/20 05:01:38;;;;;;;8.60;2.60;;;;;;;14.94;53.69;100110.42;116991;1187;23582;-63
2022/09/20 05:04:24;;;;;;;5.70;2.40;;;;;;;14.93;53.90;100109.38;117077;1187;23641;-59
2022/09/20 05:07:15;;;;;;;4.30;2.30;;;;;;;14.94;53.69;100108.83;117101;1187;23614;-67
2022/09/20 05:10:20;;;;;;;4.20;2.60;;;;;;;14.98;53.99;100105.85;116999;1187;23579;-59
2022/09/20 05:12:52;;;;;;;6.10;2.60;;;;;;;15.00;53.98;100102.06;117182;1187;23595;-67
2022/09/20 05:16:01;;;;;;;4.30;2.20;;;;;;;15.01;53.90;100097.43;116990;1187;23633;-59
2022/09/20 05:19:06;;;;;;;5.40;2.10;;;;;;;15.05;54.04;100100.84;117048;1188;24172;-67
2022/09/20 05:21:51;;;;;;;5.20;2.20;;;;;;;15.09;54.27;100106.34;116766;1189;23636;-60
2022/09/20 05:24:47;;;;;;;6.00;2.20;;;;;;;15.12;54.47;100107.48;116908;1187;23560;-60
2022/09/20 05:27:28;;;;;;;4.80;2.50;;;;;;;15.17;54.07;100104.85;117205;1187;24054;-59
2022/09/20 05:30:07;;;;;;;6.60;3.90;;;;;;;15.23;53.82;100106.38;117272;1185;24182;-59
2022/09/20 05:32:34;;;;;;;5.60;2.60;;;;;;;15.30;53.73;100108.43;117204;1187;21862;-66
2022/09/20 05:35:26;;;;;;;5.70;2.50;;;;;;;15.38;53.55;100109.05;117071;1188;22932;-67
2022/09/20 05:38:04;;;;;;;3.70;2.20;;;;;;;15.46;53.54;100114.90;119063;1187;22363;-66
2022/09/20 05:41:12;;;;;;;3.00;1.70;;;;;;;15.54;53.40;100111.46;119038;1187;21796;-59
2022/09/20 05:43:49;;;;;;;3.50;2.10;;;;;;;15.62;53.24;100105.52;119297;1186;21796;-60
2022/09/20 05:46:40;;;;;;;3.30;1.70;;;;;;;15.69;53.04;100106.13;118255;1187;21882;-60
2022/09/20 05:49:30;;;;;;;2.80;1.50;;;;;;;15.73;53.47;100109.15;117163;1187;22948;-60
2022/09/20 05:52:33;;;;;;;2.60;1.50;;;;;;;15.73;53.38;100109.30;117196;1187;24702;-66
2022/09/20 05:55:20;;;;;;;2.50;1.40;;;;;;;15.79;53.30;100114.77;116642;1191;24274;-60
2022/09/20 05:58:25;;;;;;;2.40;1.30;;;;;;;15.85;53.30;100120.39;117083;1189;23394;-67
2022/09/20 06:01:03;;;;;;;2.70;1.20;;;;;;;15.94;53.32;100132.27;117851;1183;23737;-59
2022/09/20 06:03:36;;;;;;;6.10;1.60;;;;;;;15.99;53.02;100136.14;117054;1188;21926;-59
2022/09/20 06:06:31;;;;;;;9.50;1.70;;;;;;;16.09;53.58;100143.05;117172;1186;22891;-67
2022/09/20 06:08:59;;;;;;;4.30;1.20;;;;;;;16.24;53.37;100148.45;117178;1188;21873;-59
2022/09/20 06:11:57;;;;;;;30.10;3.60;;;;;;;16.36;53.11;100147.79;117020;1188;22723;-67
2022/09/20 06:14:36;;;;;;;1.60;1.00;;;;;;;16.47;52.90;100155.14;116987;1186;22963;-67
2022/09/20 06:17:36;;;;;;;3.50;1.30;;;;;;;16.54;52.76;100160.20;116867;1187;23602;-59
2022/09/20 06:20:26;;;;;;;3.20;0.90;;;;;;;16.60;52.39;100168.27;117004;1188;23656;-68
2022/09/20 06:22:55;;;;;;;2.40;1.00;;;;;;;16.59;52.13;100165.81;117220;1186;22901;-60
2022/09/20 06:25:41;;;;;;;1.70;0.80;;;;;;;16.62;52.28;100162.70;117355;1186;22916;-60
2022/09/20 06:28:17;;;;;;;1.20;0.60;;;;;;;16.68;51.97;100160.87;117315;1185;23573;-67
2022/09/20 06:30:51;;;;;;;1.80;0.90;;;;;;;16.72;51.96;100162.15;117179;1184;22929;-60
2022/09/20 06:33:26;;;;;;;2.80;1.10;;;;;;;16.76;52.06;100169.95;117267;1185;22829;-68
2022/09/20 06:41:25;;;;;;;4.00;1.30;;;;;;;16.83;52.10;100173.39;117343;1186;23552;-60
2022/09/20 06:41:40;;;;;;;1.00;0.50;;;;;;;16.78;51.31;100176.20;117172;1188;23592;-61
2022/09/20 06:44:06;;;;;;;0.70;0.50;;;;;;;16.69;51.36;100176.08;117264;1186;21872;-69
2022/09/20 06:46:34;;;;;;;1.70;0.80;;;;;;;16.62;51.28;100168.55;117306;1185;23563;-60
2022/09/20 06:49:03;;;;;;;1.60;0.80;;;;;;;16.53;51.61;100166.80;117218;1186;22930;-60
2022/09/20 06:51:33;;;;;;;1.50;0.60;;;;;;;16.54;52.02;100167.64;117238;1189;21855;-67
2022/09/20 06:54:00;;;;;;;1.80;0.70;;;;;;;16.59;52.10;100163.21;117024;1188;23634;-70
2022/09/20 06:56:30;;;;;;;2.90;0.60;;;;;;;16.64;51.92;100164.38;117000;1189;21854;-69
2022/09/20 06:58:58;;;;;;;1.10;0.60;;;;;;;16.67;51.84;100168.72;117128;1187;21844;-68
2022/09/20 07:01:25;;;;;;;1.20;0.40;;;;;;;16.68;51.71;100166.21;117090;1186;22658;-60
2022/09/20 07:03:58;;;;;;;2.30;0.60;;;;;;;16.62;51.43;100163.75;116926;1188;22918;-59
2022/09/20 07:06:25;;;;;;;1.00;0.70;;;;;;;16.56;51.32;100160.67;117141;1187;23877;-69
2022/09/20 07:08:52;;;;;;;2.20;0.70;;;;;;;16.49;51.43;100161.65;117161;1186;23640;-69
2022/09/20 07:11:21;;;;;;;1.40;0.70;;;;;;;16.47;51.53;100166.84;117124;1188;21879;-70
2022/09/20 07:13:50;;;;;;;1.10;0.70;;;;;;;16.46;51.52;100164.95;116948;1188;22834;-60
2022/09/20 07:16:18;;;;;;;1.30;0.60;;;;;;;16.44;51.55;100163.45;116823;1189;22799;-60
2022/09/20 07:18:47;;;;;;;1.20;0.60;;;;;;;16.44;51.60;100157.22;116859;1187;21962;-60
2022/09/20 07:21:16;;;;;;;1.60;0.70;;;;;;;16.45;51.71;100151.34;117089;1187;22809;-71
2022/09/20 07:23:44;;;;;;;1.90;0.70;;;;;;;16.55;52.25;100149.88;116972;1187;23080;-60
2022/09/20 07:26:17;;;;;;;1.20;0.60;;;;;;;16.79;52.13;100148.38;117155;1189;23577;-69
2022/09/20 07:28:44;;;;;;;2.60;0.70;;;;;;;16.99;51.60;100148.42;117225;1186;22907;-70
2022/09/20 07:31:12;;;;;;;1.40;0.60;;;;;;;17.11;51.29;100152.20;117101;1187;23621;-69
2022/09/20 07:33:39;;;;;;;1.30;0.70;;;;;;;17.21;51.57;100149.48;117165;1188;21896;-70
2022/09/20 07:36:06;;;;;;;1.00;0.40;;;;;;;17.41;51.29;100149.33;117240;1186;23575;-60
2022/09/20 07:38:33;;;;;;;0.50;0.40;;;;;;;17.61;51.11;100148.59;117129;1188;23652;-60
2022/09/20 07:41:01;;;;;;;0.60;0.50;;;;;;;17.83;50.80;100151.33;117306;1186;23640;-71
2022/09/20 07:43:29;;;;;;;1.00;0.60;;;;;;;18.10;50.08;100151.15;117248;1189;21873;-62
2022/09/20 07:45:59;;;;;;;0.90;0.50;;;;;;;18.37;50.46;100148.27;117194;1186;23739;-72
2022/09/20 07:48:31;;;;;;;0.90;0.70;;;;;;;18.74;49.83;100149.31;117033;1188;23589;-71
2022/09/20 07:51:01;;;;;;;2.40;0.70;;;;;;;18.99;49.42;100151.51;117257;1188;22884;-71
2022/09/20 07:53:33;;;;;;;0.90;0.50;;;;;;;19.11;49.14;100151.42;117110;1186;23573;-61
2022/09/20 07:56:02;;;;;;;1.60;0.60;;;;;;;19.26;48.93;100154.05;117255;1188;23592;-67
2022/09/20 07:58:30;;;;;;;1.10;0.60;;;;;;;19.47;48.91;100151.14;117199;1186;22925;-60
2022/09/20 08:01:00;;;;;;;2.90;0.70;;;;;;;19.67;48.69;100155.98;117032;1188;24196;-59
2022/09/20 08:03:29;;;;;;;1.20;0.60;;;;;;;19.84;48.01;100156.30;117050;1186;23483;-60
2022/09/20 08:06:00;;;;;;;0.70;0.60;;;;;;;20.02;47.81;100155.91;117061;1188;22930;-59
2022/09/20 08:08:30;;;;;;;1.20;0.60;;;;;;;20.07;47.23;100160.61;117130;1186;22800;-60
2022/09/20 08:11:09;;;;;;;1.40;0.60;;;;;;;19.95;46.49;100163.18;117475;1185;21973;-61
2022/09/20 08:13:42;;;;;;;2.50;0.50;;;;;;;19.85;46.88;100156.76;117422;1186;23553;-71
2022/09/20 08:16:30;;;;;;;2.10;0.30;;;;;;;19.87;45.94;100160.93;117173;1186;24161;-71
2022/09/20 08:18:59;;;;;;;2.20;0.60;;;;;;;19.71;45.90;100157.55;117166;1187;21856;-70
2022/09/20 08:21:29;;;;;;;4.60;0.60;;;;;;;19.56;46.04;100151.39;117142;1189;22233;-71
2022/09/20 08:23:57;;;;;;;3.10;0.60;;;;;;;19.50;45.78;100147.60;117206;1189;21899;-60
2022/09/20 08:26:26;;;;;;;4.10;0.60;;;;;;;19.52;46.38;100148.94;117265;1186;21868;-61
2022/09/20 08:28:55;;;;;;;2.30;0.70;;;;;;;19.54;46.17;100147.02;116998;1189;22951;-61
2022/09/20 08:31:23;;;;;;;1.70;0.60;;;;;;;19.52;45.82;100145.74;117119;1186;23555;-71
2022/09/20 08:33:51;;;;;;;5.20;1.70;;;;;;;19.47;45.66;100142.74;117217;1186;21854;-61
2022/09/20 08:36:23;;;;;;;1.10;0.50;;;;;;;19.56;45.88;100140.20;117131;1186;23554;-70
2022/09/20 08:38:52;;;;;;;3.00;0.70;;;;;;;19.72;45.95;100136.31;117221;1188;24060;-60
2022/09/20 08:41:46;;;;;;;2.50;0.60;;;;;;;19.88;45.36;100130.27;117231;1187;23452;-67
2022/09/20 08:44:31;;;;;;;0.90;0.40;;;;;;;20.04;45.74;100132.60;117249;1188;21881;-61
2022/09/20 08:47:29;;;;;;;1.10;0.50;;;;;;;20.28;45.52;100129.83;117119;1186;23546;-68
2022/09/20 08:49:57;;;;;;;1.00;0.50;;;;;;;20.46;44.40;100128.84;117306;1189;21856;-61
2022/09/20 08:52:29;;;;;;;1.30;0.60;;;;;;;20.46;43.82;100129.55;117067;1188;21917;-61
2022/09/20 08:54:58;;;;;;;0.80;0.40;;;;;;;20.36;43.50;100135.48;117201;1188;21879;-67
2022/09/20 08:57:28;;;;;;;0.50;0.40;;;;;;;20.17;43.86;100132.06;117228;1186;23640;-69
2022/09/20 08:59:54;;;;;;;0.50;0.30;;;;;;;20.05;43.84;100129.01;117198;1188;21859;-61
2022/09/20 09:02:21;;;;;;;1.00;0.40;;;;;;;20.13;44.03;100129.47;117164;1189;22069;-68
2022/09/20 09:04:50;;;;;;;1.90;0.90;;;;;;;20.24;44.42;100130.09;117389;1186;23555;-68
2022/09/20 09:07:19;;;;;;;2.50;0.40;;;;;;;20.34;43.95;100131.48;117235;1186;23577;-61
2022/09/20 09:09:48;;;;;;;1.30;0.40;;;;;;;20.31;43.23;100128.46;117083;1186;22970;-68
2022/09/20 09:12:25;;;;;;;1.90;0.50;;;;;;;20.26;43.57;100127.31;117117;1183;22822;-68
2022/09/20 09:14:53;;;;;;;0.60;0.30;;;;;;;20.24;43.43;100122.27;117077;1189;24783;-68
2022/09/20 09:17:28;;;;;;;1.30;0.40;;;;;;;20.15;43.26;100116.88;116931;1188;23653;-61
2022/09/20 09:20:06;;;;;;;1.20;0.40;;;;;;;20.14;43.58;100116.59;117166;1189;21857;-68
2022/09/20 09:22:41;;;;;;;0.60;0.40;;;;;;;20.25;43.32;100116.14;117032;1189;24171;-61
2022/09/20 09:25:15;;;;;;;5.90;0.80;;;;;;;20.38;42.98;100115.58;117293;1186;23554;-61
2022/09/20 09:27:49;;;;;;;1.40;0.30;;;;;;;20.41;42.97;100115.02;117275;1188;21857;-62
2022/09/20 09:30:34;;;;;;;2.10;0.40;;;;;;;20.42;42.44;100118.04;117193;1186;22809;-61
2022/09/20 09:33:34;;;;;;;3.80;0.40;;;;;;;20.46;42.49;100112.25;117302;1186;21865;-70
2022/09/20 09:36:12;;;;;;;2.80;0.40;;;;;;;20.57;42.24;100107.69;116950;1186;23545;-73
2022/09/20 09:38:43;;;;;;;2.30;0.50;;;;;;;20.84;42.07;100104.20;117245;1186;24261;-71
2022/09/20 09:41:23;;;;;;;0.80;0.40;;;;;;;21.02;41.25;100107.94;117287;1186;21857;-60
2022/09/20 09:44:06;;;;;;;1.10;0.40;;;;;;;21.06;41.53;100110.92;116978;1188;23624;-61
2022/09/20 09:46:34;;;;;;;2.80;0.40;;;;;;;20.96;41.64;100112.45;117042;1187;22989;-61
2022/09/20 09:49:18;;;;;;;1.90;0.50;;;;;;;20.88;41.63;100109.67;117204;1186;23449;-62
2022/09/20 09:52:13;;;;;;;3.20;0.30;;;;;;;20.85;40.84;100111.14;117106;1188;23567;-70
2022/09/20 09:54:46;;;;;;;1.40;0.50;;;;;;;20.79;40.65;100109.98;117142;1186;23561;-61
2022/09/20 09:57:27;;;;;;;1.20;0.40;;;;;;;20.79;40.88;100103.23;117234;1185;23473;-62
2022/09/20 10:00:11;;;;;;;1.00;0.40;;;;;;;20.81;40.70;100104.69;117090;1186;23574;-70
2022/09/20 10:02:52;;;;;;;1.10;0.40;;;;;;;20.94;40.67;100101.11;117306;1186;22912;-60
2022/09/20 10:05:54;;;;;;;2.20;0.40;;;;;;;21.24;40.61;100097.89;117288;1186;23576;-61
2022/09/20 10:08:22;;;;;;;0.60;0.30;;;;;;;21.64;40.31;100096.52;116664;1191;23576;-71
2022/09/20 10:11:01;;;;;;;0.80;0.30;;;;;;;21.81;40.15;100099.55;117125;1185;23611;-72
2022/09/20 10:13:48;;;;;;;0.50;0.30;;;;;;;22.04;39.30;100099.00;117059;1188;22934;-71
2022/09/20 10:16:19;;;;;;;0.40;0.20;;;;;;;22.20;39.19;100097.39;116908;1186;23563;-60
2022/09/20 10:19:05;;;;;;;1.30;0.30;;;;;;;22.37;38.74;100097.73;116979;1189;23554;-71
2022/09/20 10:21:42;;;;;;;1.40;0.30;;;;;;;22.48;38.78;100094.34;116967;1188;22712;-72
2022/09/20 10:24:16;;;;;;;3.90;0.40;;;;;;;22.55;38.36;100093.15;117096;1189;21857;-72
2022/09/20 10:26:47;;;;;;;1.20;0.30;;;;;;;22.56;38.23;100092.59;117109;1182;22885;-75
2022/09/20 10:29:27;;;;;;;1.50;0.30;;;;;;;22.51;38.17;100097.59;117076;1188;23365;-75
2022/09/20 10:32:20;;;;;;;1.20;0.40;;;;;;;22.48;38.62;100095.27;116965;1188;21847;-76
2022/09/20 10:35:14;;;;;;;2.70;0.70;;;;;;;22.56;38.09;100095.59;117278;1183;22516;-60
2022/09/20 10:38:00;;;;;;;1.40;0.50;;;;;;;22.50;37.61;100100.11;117116;1188;23205;-73
2022/09/20 10:43:13;;;;;;;2.80;0.60;;;;;;;22.29;38.17;100107.74;117095;1186;23597;-60
2022/09/20 10:43:33;;;;;;;1.00;0.50;;;;;;;22.00;38.27;100109.59;116982;1182;23698;-74
2022/09/20 10:46:28;;;;;;;3.20;0.60;;;;;;;21.84;39.03;100108.85;117189;1188;23551;-60
2022/09/20 10:49:28;;;;;;;2.00;0.50;;;;;;;21.91;38.26;100108.94;117154;1186;22915;-74
2022/09/20 10:52:18;;;;;;;6.80;0.60;;;;;;;22.00;39.01;100110.45;116982;1188;22810;-73
2022/09/20 10:55:03;;;;;;;45.40;4.00;;;;;;;22.30;38.66;100109.45;117037;1188;23560;-72
2022/09/20 10:57:47;;;;;;;17.10;1.70;;;;;;;22.60;38.27;100108.94;117112;1186;24507;-62
2022/09/20 11:00:21;;;;;;;2.10;0.70;;;;;;;22.77;38.27;100116.38;116996;1186;22948;-71
2022/09/20 11:03:06;;;;;;;18.00;2.30;;;;;;;22.83;37.48;100117.23;118104;1188;23558;-69
2022/09/20 11:05:42;;;;;;;21.80;1.50;;;;;;;22.98;37.42;100116.20;117023;1188;22928;-69
2022/09/20 11:08:14;;;;;;;6.80;0.80;;;;;;;23.06;37.15;100111.40;117139;1187;21971;-72
2022/09/20 11:10:43;;;;;;;2.10;0.50;;;;;;;22.99;36.59;100112.05;117080;1189;23455;-70
2022/09/20 11:13:25;;;;;;;2.70;0.40;;;;;;;23.00;36.81;100111.97;117261;1186;23557;-61
2022/09/20 11:16:13;;;;;;;2.50;0.60;;;;;;;23.04;36.82;100119.02;117074;1186;22926;-72
2022/09/20 11:18:52;;;;;;;1.40;0.60;;;;;;;23.06;36.34;100123.05;117078;1188;24238;-68
2022/09/20 11:21:31;;;;;;;2.80;0.90;;;;;;;22.99;36.34;100124.33;117233;1186;24209;-65
2022/09/20 11:24:18;;;;;;;2.80;0.80;;;;;;;22.87;36.18;100125.35;117122;1187;23627;-64
2022/09/20 11:26:51;;;;;;;0.80;0.60;;;;;;;22.66;35.85;100125.86;117208;1186;23432;-61
2022/09/20 11:29:24;;;;;;;0.70;0.40;;;;;;;22.56;36.21;100125.27;117054;1186;22943;-61
2022/09/20 11:31:53;;;;;;;1.10;0.40;;;;;;;22.49;35.85;100121.48;117153;1186;23577;-61
2022/09/20 11:34:25;;;;;;;3.80;0.60;;;;;;;22.52;36.03;100123.41;117128;1187;21855;-66
2022/09/20 11:36:56;;;;;;;1.10;0.50;;;;;;;22.45;35.70;100118.83;117027;1186;23445;-61
2022/09/20 11:39:35;;;;;;;1.00;0.40;;;;;;;22.33;35.63;100117.68;117098;1187;23558;-61
2022/09/20 11:42:03;;;;;;;2.90;0.50;;;;;;;22.26;35.56;100116.17;117055;1188;23649;-61
2022/09/20 11:44:30;;;;;;;1.40;0.40;;;;;;;22.24;35.33;100113.39;117098;1187;23612;-61
2022/09/20 11:47:06;;;;;;;2.00;0.40;;;;;;;22.25;35.40;100111.02;117161;1188;23551;-72
2022/09/20 11:49:43;;;;;;;4.10;0.40;;;;;;;22.28;35.19;100105.29;117303;1186;22915;-72
2022/09/20 11:52:27;;;;;;;3.80;0.80;;;;;;;22.25;35.66;100108.85;117230;1185;22811;-60
2022/09/20 11:54:59;;;;;;;1.50;0.40;;;;;;;22.16;35.16;100106.77;117083;1186;23657;-59
2022/09/20 11:57:25;;;;;;;3.30;0.40;;;;;;;21.99;35.66;100109.09;119391;1185;21795;-60
2022/09/20 11:59:58;;;;;;;1.00;0.20;;;;;;;21.93;35.29;100114.70;117726;1184;23458;-74
2022/09/20 12:02:32;;;;;;;14.40;1.10;;;;;;;21.74;35.59;100120.37;117105;1188;21865;-61
2022/09/20 12:05:00;;;;;;;0.80;0.40;;;;;;;21.60;35.56;100118.33;117137;1186;21861;-74
2022/09/20 12:07:33;;;;;;;1.80;0.50;;;;;;;21.48;35.87;100122.81;117350;1186;23554;-73
2022/09/20 12:10:09;;;;;;;1.20;0.30;;;;;;;21.47;36.51;100121.98;117087;1184;22932;-74
2022/09/20 12:12:46;;;;;;;2.00;0.40;;;;;;;21.68;36.69;100121.07;117196;1186;23635;-74
2022/09/20 12:15:40;;;;;;;0.50;0.40;;;;;;;21.96;35.50;100123.23;117234;1181;23595;-60
2022/09/20 12:18:28;;;;;;;4.60;0.40;;;;;;;22.07;35.28;100124.19;117092;1187;23645;-60
2022/09/20 12:20:56;;;;;;;1.90;0.50;;;;;;;22.06;35.11;100123.51;117093;1188;23568;-69